sensor_id;sensor_type;location;lat;lon;timestamp;P1;durP1;ratioP1;P2;durP2;ratioP2
50851;SDS011;43953;45.508;-122.806;2023-04-03T00:00:25;1.63;;;0.50;;
50851;SDS011;43953;45.508;-122.806;2023-04-03T00:00:57;0.75;;;0.70;;
50851;SDS011;43953;45.508;-122.806;2023-04-03T00:01:28;0.85;;;0.60;;
50851;SDS011;43953;45.508;-122.806;2023-04-03T00:02:00;0.60;;;0.60;;
50851;SDS011;43953;45.508;-122.806;2023-04-03T00:02:32;1.30;;;0.60;;
50851;SDS011;43953;45.508;-122.806;2023-04-03T00:03:04;1.05;;;0.57;;
50851;SDS011;43953;45.508;-122.806;2023-04-03T00:03:36;1.10;;;0.55;;
50851;SDS011;43953;45.508;-122.806;2023-04-03T00:04:08;1.15;;;0.50;;
50851;SDS011;43953;45.508;-122.806;2023-04-03T00:04:40;1.15;;;0.50;;
50851;SDS011;43953;45.508;-122.806;2023-04-03T00:05:11;2.70;;;0.70;;
50851;SDS011;43953;45.508;-122.806;2023-04-03T00:05:43;0.75;;;0.50;;
50851;SDS011;43953;45.508;-122.806;2023-04-03T00:06:15;0.95;;;0.70;;
50851;SDS011;43953;45.508;-122.806;2023-04-03T00:06:47;0.80;;;0.60;;
50851;SDS011;43953;45.508;-122.806;2023-04-03T00:07:18;0.63;;;0.47;;
50851;SDS011;43953;45.508;-122.806;2023-04-03T00:07:50;0.50;;;0.50;;
50851;SDS011;43953;45.508;-122.806;2023-04-03T00:08:22;1.17;;;0.60;;
50851;SDS011;43953;45.508;-122.806;2023-04-03T00:08:54;1.10;;;0.50;;
50851;SDS011;43953;45.508;-122.806;2023-04-03T00:09:26;0.70;;;0.60;;
50851;SDS011;43953;45.508;-122.806;2023-04-03T00:09:57;0.73;;;0.50;;
50851;SDS011;43953;45.508;-122.806;2023-04-03T00:10:29;2.10;;;0.70;;
50851;SDS011;43953;45.508;-122.806;2023-04-03T00:11:01;1.23;;;0.50;;
50851;SDS011;43953;45.508;-122.806;2023-04-03T00:11:33;1.25;;;0.60;;
50851;SDS011;43953;45.508;-122.806;2023-04-03T00:12:05;1.38;;;0.60;;
50851;SDS011;43953;45.508;-122.806;2023-04-03T00:12:36;1.67;;;0.70;;
50851;SDS011;43953;45.508;-122.806;2023-04-03T00:13:08;0.75;;;0.50;;
50851;SDS011;43953;45.508;-122.806;2023-04-03T00:13:41;0.85;;;0.60;;
50851;SDS011;43953;45.508;-122.806;2023-04-03T00:14:12;1.30;;;0.55;;
50851;SDS011;43953;45.508;-122.806;2023-04-03T00:14:44;1.58;;;0.80;;
50851;SDS011;43953;45.508;-122.806;2023-04-03T00:15:16;0.57;;;0.50;;
50851;SDS011;43953;45.508;-122.806;2023-04-03T00:15:48;0.40;;;0.40;;
50851;SDS011;43953;45.508;-122.806;2023-04-03T00:16:19;0.70;;;0.43;;
50851;SDS011;43953;45.508;-122.806;2023-04-03T00:16:51;0.43;;;0.40;;
50851;SDS011;43953;45.508;-122.806;2023-04-03T00:17:23;2.03;;;0.60;;
50851;SDS011;43953;45.508;-122.806;2023-04-03T00:17:54;1.88;;;0.60;;
50851;SDS011;43953;45.508;-122.806;2023-04-03T00:18:26;0.50;;;0.50;;
50851;SDS011;43953;45.508;-122.806;2023-04-03T00:18:58;0.85;;;0.50;;
50851;SDS011;43953;45.508;-122.806;2023-04-03T00:19:30;0.50;;;0.50;;
50851;SDS011;43953;45.508;-122.806;2023-04-03T00:20:02;0.82;;;0.50;;
50851;SDS011;43953;45.508;-122.806;2023-04-03T00:20:35;0.47;;;0.40;;
50851;SDS011;43953;45.508;-122.806;2023-04-03T00:21:07;0.57;;;0.40;;
50851;SDS011;43953;45.508;-122.806;2023-04-03T00:21:42;1.50;;;0.52;;
50851;SDS011;43953;45.508;-122.806;2023-04-03T00:22:14;0.73;;;0.60;;
50851;SDS011;43953;45.508;-122.806;2023-04-03T00:22:46;1.55;;;0.63;;
50851;SDS011;43953;45.508;-122.806;2023-04-03T00:23:17;0.63;;;0.45;;
50851;SDS011;43953;45.508;-122.806;2023-04-03T00:23:49;0.60;;;0.50;;
50851;SDS011;43953;45.508;-122.806;2023-04-03T00:24:21;0.68;;;0.50;;
50851;SDS011;43953;45.508;-122.806;2023-04-03T00:24:53;1.95;;;0.50;;
50851;SDS011;43953;45.508;-122.806;2023-04-03T00:25:25;0.45;;;0.45;;
50851;SDS011;43953;45.508;-122.806;2023-04-03T00:25:57;1.30;;;0.73;;
50851;SDS011;43953;45.508;-122.806;2023-04-03T00:26:28;2.03;;;1.00;;
50851;SDS011;43953;45.508;-122.806;2023-04-03T00:27:00;1.63;;;0.75;;
50851;SDS011;43953;45.508;-122.806;2023-04-03T00:27:32;0.68;;;0.55;;
50851;SDS011;43953;45.508;-122.806;2023-04-03T00:28:03;1.48;;;0.50;;
50851;SDS011;43953;45.508;-122.806;2023-04-03T00:28:36;1.85;;;0.60;;
50851;SDS011;43953;45.508;-122.806;2023-04-03T00:29:07;1.27;;;0.60;;
50851;SDS011;43953;45.508;-122.806;2023-04-03T00:29:39;0.55;;;0.40;;
50851;SDS011;43953;45.508;-122.806;2023-04-03T00:30:12;1.02;;;0.47;;
50851;SDS011;43953;45.508;-122.806;2023-04-03T00:30:50;0.45;;;0.40;;
50851;SDS011;43953;45.508;-122.806;2023-04-03T00:31:22;3.42;;;0.70;;
50851;SDS011;43953;45.508;-122.806;2023-04-03T00:31:54;0.98;;;0.50;;
50851;SDS011;43953;45.508;-122.806;2023-04-03T00:32:26;1.10;;;0.80;;
50851;SDS011;43953;45.508;-122.806;2023-04-03T00:32:57;0.82;;;0.50;;
50851;SDS011;43953;45.508;-122.806;2023-04-03T00:33:29;0.60;;;0.52;;
50851;SDS011;43953;45.508;-122.806;2023-04-03T00:34:01;0.90;;;0.60;;
50851;SDS011;43953;45.508;-122.806;2023-04-03T00:34:33;0.77;;;0.40;;
50851;SDS011;43953;45.508;-122.806;2023-04-03T00:35:05;0.40;;;0.40;;
50851;SDS011;43953;45.508;-122.806;2023-04-03T00:35:37;0.95;;;0.60;;
50851;SDS011;43953;45.508;-122.806;2023-04-03T00:36:09;0.50;;;0.50;;
50851;SDS011;43953;45.508;-122.806;2023-04-03T00:36:41;0.73;;;0.60;;
50851;SDS011;43953;45.508;-122.806;2023-04-03T00:37:13;0.75;;;0.47;;
50851;SDS011;43953;45.508;-122.806;2023-04-03T00:37:45;0.52;;;0.52;;
50851;SDS011;43953;45.508;-122.806;2023-04-03T00:38:17;0.57;;;0.40;;
50851;SDS011;43953;45.508;-122.806;2023-04-03T00:38:49;0.68;;;0.57;;
50851;SDS011;43953;45.508;-122.806;2023-04-03T00:39:21;0.60;;;0.50;;
50851;SDS011;43953;45.508;-122.806;2023-04-03T00:39:52;0.90;;;0.60;;
50851;SDS011;43953;45.508;-122.806;2023-04-03T00:40:24;0.70;;;0.60;;
50851;SDS011;43953;45.508;-122.806;2023-04-03T00:40:57;1.30;;;0.60;;
50851;SDS011;43953;45.508;-122.806;2023-04-03T00:41:29;3.42;;;0.90;;
50851;SDS011;43953;45.508;-122.806;2023-04-03T00:42:01;0.75;;;0.75;;
50851;SDS011;43953;45.508;-122.806;2023-04-03T00:42:32;0.80;;;0.80;;
50851;SDS011;43953;45.508;-122.806;2023-04-03T00:43:09;0.90;;;0.75;;
50851;SDS011;43953;45.508;-122.806;2023-04-03T00:43:46;1.23;;;0.80;;
50851;SDS011;43953;45.508;-122.806;2023-04-03T00:44:22;1.77;;;1.00;;
50851;SDS011;43953;45.508;-122.806;2023-04-03T00:45:38;0.95;;;0.70;;
50851;SDS011;43953;45.508;-122.806;2023-04-03T00:46:12;1.08;;;0.70;;
50851;SDS011;43953;45.508;-122.806;2023-04-03T00:46:43;1.05;;;0.70;;
50851;SDS011;43953;45.508;-122.806;2023-04-03T00:47:16;0.63;;;0.50;;
50851;SDS011;43953;45.508;-122.806;2023-04-03T00:47:49;0.70;;;0.50;;
50851;SDS011;43953;45.508;-122.806;2023-04-03T00:49:10;0.40;;;0.40;;
50851;SDS011;43953;45.508;-122.806;2023-04-03T00:49:42;0.47;;;0.40;;
50851;SDS011;43953;45.508;-122.806;2023-04-03T00:50:15;1.67;;;0.50;;
50851;SDS011;43953;45.508;-122.806;2023-04-03T00:50:47;0.40;;;0.40;;
50851;SDS011;43953;45.508;-122.806;2023-04-03T00:51:22;0.52;;;0.30;;
50851;SDS011;43953;45.508;-122.806;2023-04-03T00:51:55;0.52;;;0.45;;
50851;SDS011;43953;45.508;-122.806;2023-04-03T00:52:29;0.52;;;0.40;;
50851;SDS011;43953;45.508;-122.806;2023-04-03T00:53:02;1.13;;;0.40;;
50851;SDS011;43953;45.508;-122.806;2023-04-03T00:53:40;0.40;;;0.40;;
50851;SDS011;43953;45.508;-122.806;2023-04-03T00:54:21;0.35;;;0.32;;
50851;SDS011;43953;45.508;-122.806;2023-04-03T00:54:54;0.40;;;0.40;;
50851;SDS011;43953;45.508;-122.806;2023-04-03T00:55:29;0.73;;;0.38;;
50851;SDS011;43953;45.508;-122.806;2023-04-03T00:56:01;0.40;;;0.40;;
50851;SDS011;43953;45.508;-122.806;2023-04-03T00:56:36;1.88;;;0.40;;
50851;SDS011;43953;45.508;-122.806;2023-04-03T00:57:09;1.02;;;0.38;;
50851;SDS011;43953;45.508;-122.806;2023-04-03T00:57:42;0.45;;;0.45;;
50851;SDS011;43953;45.508;-122.806;2023-04-03T00:58:14;1.13;;;0.47;;
50851;SDS011;43953;45.508;-122.806;2023-04-03T00:58:53;0.40;;;0.40;;
50851;SDS011;43953;45.508;-122.806;2023-04-03T00:59:31;0.52;;;0.30;;
50851;SDS011;43953;45.508;-122.806;2023-04-03T01:00:08;1.20;;;0.47;;
50851;SDS011;43953;45.508;-122.806;2023-04-03T01:00:44;1.50;;;0.52;;
50851;SDS011;43953;45.508;-122.806;2023-04-03T01:01:25;0.47;;;0.47;;
50851;SDS011;43953;45.508;-122.806;2023-04-03T01:01:59;0.95;;;0.50;;
50851;SDS011;43953;45.508;-122.806;2023-04-03T01:02:31;0.70;;;0.55;;
50851;SDS011;43953;45.508;-122.806;2023-04-03T01:03:03;1.55;;;0.65;;
50851;SDS011;43953;45.508;-122.806;2023-04-03T01:03:35;1.05;;;0.52;;
50851;SDS011;43953;45.508;-122.806;2023-04-03T01:05:01;1.27;;;0.50;;
50851;SDS011;43953;45.508;-122.806;2023-04-03T01:05:33;1.15;;;0.55;;
50851;SDS011;43953;45.508;-122.806;2023-04-03T01:06:05;0.50;;;0.40;;
50851;SDS011;43953;45.508;-122.806;2023-04-03T01:06:37;1.75;;;0.70;;
50851;SDS011;43953;45.508;-122.806;2023-04-03T01:07:10;1.02;;;0.60;;
50851;SDS011;43953;45.508;-122.806;2023-04-03T01:07:47;0.57;;;0.57;;
50851;SDS011;43953;45.508;-122.806;2023-04-03T01:08:21;1.00;;;0.52;;
50851;SDS011;43953;45.508;-122.806;2023-04-03T01:08:52;1.33;;;0.50;;
50851;SDS011;43953;45.508;-122.806;2023-04-03T01:09:26;1.00;;;0.60;;
50851;SDS011;43953;45.508;-122.806;2023-04-03T01:10:00;1.65;;;0.40;;
50851;SDS011;43953;45.508;-122.806;2023-04-03T01:10:34;0.70;;;0.47;;
50851;SDS011;43953;45.508;-122.806;2023-04-03T01:11:06;1.38;;;0.60;;
50851;SDS011;43953;45.508;-122.806;2023-04-03T01:11:38;0.70;;;0.63;;
50851;SDS011;43953;45.508;-122.806;2023-04-03T01:12:16;0.60;;;0.60;;
50851;SDS011;43953;45.508;-122.806;2023-04-03T01:12:49;0.77;;;0.50;;
50851;SDS011;43953;45.508;-122.806;2023-04-03T01:13:26;0.90;;;0.50;;
50851;SDS011;43953;45.508;-122.806;2023-04-03T01:14:34;2.40;;;0.70;;
50851;SDS011;43953;45.508;-122.806;2023-04-03T01:15:06;0.40;;;0.40;;
50851;SDS011;43953;45.508;-122.806;2023-04-03T01:15:40;0.75;;;0.60;;
50851;SDS011;43953;45.508;-122.806;2023-04-03T01:16:12;1.98;;;0.68;;
50851;SDS011;43953;45.508;-122.806;2023-04-03T01:16:53;0.60;;;0.60;;
50851;SDS011;43953;45.508;-122.806;2023-04-03T01:17:33;0.45;;;0.40;;
50851;SDS011;43953;45.508;-122.806;2023-04-03T01:18:09;0.55;;;0.50;;
50851;SDS011;43953;45.508;-122.806;2023-04-03T01:18:42;1.60;;;0.70;;
50851;SDS011;43953;45.508;-122.806;2023-04-03T01:19:14;2.47;;;0.70;;
50851;SDS011;43953;45.508;-122.806;2023-04-03T01:19:48;0.38;;;0.38;;
50851;SDS011;43953;45.508;-122.806;2023-04-03T01:24:27;0.50;;;0.50;;
50851;SDS011;43953;45.508;-122.806;2023-04-03T01:25:04;0.68;;;0.40;;
50851;SDS011;43953;45.508;-122.806;2023-04-03T01:25:40;0.60;;;0.47;;
50851;SDS011;43953;45.508;-122.806;2023-04-03T01:26:23;0.90;;;0.50;;
50851;SDS011;43953;45.508;-122.806;2023-04-03T01:26:56;0.93;;;0.40;;
50851;SDS011;43953;45.508;-122.806;2023-04-03T01:27:28;0.80;;;0.50;;
50851;SDS011;43953;45.508;-122.806;2023-04-03T01:28:00;0.82;;;0.50;;
50851;SDS011;43953;45.508;-122.806;2023-04-03T01:28:33;1.23;;;0.50;;
50851;SDS011;43953;45.508;-122.806;2023-04-03T01:29:06;2.78;;;0.80;;
50851;SDS011;43953;45.508;-122.806;2023-04-03T01:29:38;0.47;;;0.47;;
50851;SDS011;43953;45.508;-122.806;2023-04-03T01:30:11;0.50;;;0.30;;
50851;SDS011;43953;45.508;-122.806;2023-04-03T01:30:57;1.45;;;0.50;;
50851;SDS011;43953;45.508;-122.806;2023-04-03T01:31:58;1.30;;;0.60;;
50851;SDS011;43953;45.508;-122.806;2023-04-03T01:32:31;0.85;;;0.50;;
50851;SDS011;43953;45.508;-122.806;2023-04-03T01:33:03;0.57;;;0.43;;
50851;SDS011;43953;45.508;-122.806;2023-04-03T01:33:34;0.40;;;0.40;;
50851;SDS011;43953;45.508;-122.806;2023-04-03T01:34:08;0.93;;;0.77;;
50851;SDS011;43953;45.508;-122.806;2023-04-03T01:34:39;0.65;;;0.47;;
50851;SDS011;43953;45.508;-122.806;2023-04-03T01:35:11;1.48;;;0.50;;
50851;SDS011;43953;45.508;-122.806;2023-04-03T01:35:43;1.30;;;0.60;;
50851;SDS011;43953;45.508;-122.806;2023-04-03T01:36:21;1.02;;;0.50;;
50851;SDS011;43953;45.508;-122.806;2023-04-03T01:36:55;0.80;;;0.50;;
50851;SDS011;43953;45.508;-122.806;2023-04-03T01:37:27;0.47;;;0.40;;
50851;SDS011;43953;45.508;-122.806;2023-04-03T01:37:59;1.17;;;0.52;;
50851;SDS011;43953;45.508;-122.806;2023-04-03T01:38:30;1.70;;;0.60;;
50851;SDS011;43953;45.508;-122.806;2023-04-03T01:39:02;1.00;;;0.60;;
50851;SDS011;43953;45.508;-122.806;2023-04-03T01:39:34;0.70;;;0.50;;
50851;SDS011;43953;45.508;-122.806;2023-04-03T01:40:06;0.60;;;0.60;;
50851;SDS011;43953;45.508;-122.806;2023-04-03T01:40:38;1.00;;;0.50;;
50851;SDS011;43953;45.508;-122.806;2023-04-03T01:41:10;0.40;;;0.40;;
50851;SDS011;43953;45.508;-122.806;2023-04-03T01:41:42;1.40;;;0.60;;
50851;SDS011;43953;45.508;-122.806;2023-04-03T01:42:14;1.30;;;0.60;;
50851;SDS011;43953;45.508;-122.806;2023-04-03T01:42:46;0.68;;;0.60;;
50851;SDS011;43953;45.508;-122.806;2023-04-03T01:43:18;1.15;;;0.40;;
50851;SDS011;43953;45.508;-122.806;2023-04-03T01:43:50;0.63;;;0.50;;
50851;SDS011;43953;45.508;-122.806;2023-04-03T01:44:22;1.25;;;0.55;;
50851;SDS011;43953;45.508;-122.806;2023-04-03T01:44:53;1.20;;;0.50;;
50851;SDS011;43953;45.508;-122.806;2023-04-03T01:45:25;0.68;;;0.60;;
50851;SDS011;43953;45.508;-122.806;2023-04-03T01:45:57;0.60;;;0.60;;
50851;SDS011;43953;45.508;-122.806;2023-04-03T01:46:28;1.05;;;0.63;;
50851;SDS011;43953;45.508;-122.806;2023-04-03T01:47:00;1.80;;;0.90;;
50851;SDS011;43953;45.508;-122.806;2023-04-03T01:47:32;0.57;;;0.52;;
50851;SDS011;43953;45.508;-122.806;2023-04-03T01:48:04;0.57;;;0.57;;
50851;SDS011;43953;45.508;-122.806;2023-04-03T01:48:36;1.20;;;0.65;;
50851;SDS011;43953;45.508;-122.806;2023-04-03T01:49:08;1.05;;;0.85;;
50851;SDS011;43953;45.508;-122.806;2023-04-03T01:49:39;1.27;;;0.70;;
50851;SDS011;43953;45.508;-122.806;2023-04-03T01:50:11;1.17;;;1.08;;
50851;SDS011;43953;45.508;-122.806;2023-04-03T01:50:43;1.50;;;0.70;;
50851;SDS011;43953;45.508;-122.806;2023-04-03T01:51:15;0.88;;;0.70;;
50851;SDS011;43953;45.508;-122.806;2023-04-03T01:51:47;0.98;;;0.68;;
50851;SDS011;43953;45.508;-122.806;2023-04-03T01:52:18;1.70;;;1.23;;
50851;SDS011;43953;45.508;-122.806;2023-04-03T01:52:50;0.68;;;0.63;;
50851;SDS011;43953;45.508;-122.806;2023-04-03T01:53:22;1.30;;;0.60;;
50851;SDS011;43953;45.508;-122.806;2023-04-03T01:53:53;0.77;;;0.68;;
50851;SDS011;43953;45.508;-122.806;2023-04-03T01:54:25;1.13;;;0.88;;
50851;SDS011;43953;45.508;-122.806;2023-04-03T01:54:57;0.75;;;0.55;;
50851;SDS011;43953;45.508;-122.806;2023-04-03T01:55:28;0.85;;;0.63;;
50851;SDS011;43953;45.508;-122.806;2023-04-03T01:56:00;0.82;;;0.65;;
50851;SDS011;43953;45.508;-122.806;2023-04-03T01:56:32;1.90;;;0.60;;
50851;SDS011;43953;45.508;-122.806;2023-04-03T01:57:03;1.17;;;0.65;;
50851;SDS011;43953;45.508;-122.806;2023-04-03T01:57:35;1.50;;;0.68;;
50851;SDS011;43953;45.508;-122.806;2023-04-03T01:58:07;1.00;;;0.52;;
50851;SDS011;43953;45.508;-122.806;2023-04-03T01:58:39;1.73;;;0.60;;
50851;SDS011;43953;45.508;-122.806;2023-04-03T01:59:10;1.45;;;0.60;;
50851;SDS011;43953;45.508;-122.806;2023-04-03T01:59:42;1.80;;;0.80;;
50851;SDS011;43953;45.508;-122.806;2023-04-03T02:00:14;1.80;;;1.00;;
50851;SDS011;43953;45.508;-122.806;2023-04-03T02:00:46;1.27;;;0.70;;
50851;SDS011;43953;45.508;-122.806;2023-04-03T02:01:18;0.90;;;0.75;;
50851;SDS011;43953;45.508;-122.806;2023-04-03T02:01:50;0.82;;;0.70;;
50851;SDS011;43953;45.508;-122.806;2023-04-03T02:02:22;0.90;;;0.80;;
50851;SDS011;43953;45.508;-122.806;2023-04-03T02:02:54;1.17;;;0.70;;
50851;SDS011;43953;45.508;-122.806;2023-04-03T02:03:26;1.33;;;0.80;;
50851;SDS011;43953;45.508;-122.806;2023-04-03T02:03:57;2.28;;;0.70;;
50851;SDS011;43953;45.508;-122.806;2023-04-03T02:04:29;1.55;;;0.60;;
50851;SDS011;43953;45.508;-122.806;2023-04-03T02:05:01;1.20;;;0.80;;
50851;SDS011;43953;45.508;-122.806;2023-04-03T02:05:32;1.88;;;0.80;;
50851;SDS011;43953;45.508;-122.806;2023-04-03T02:06:04;1.35;;;0.80;;
50851;SDS011;43953;45.508;-122.806;2023-04-03T02:06:36;1.63;;;0.88;;
50851;SDS011;43953;45.508;-122.806;2023-04-03T02:07:08;1.10;;;0.90;;
50851;SDS011;43953;45.508;-122.806;2023-04-03T02:07:40;1.20;;;1.02;;
50851;SDS011;43953;45.508;-122.806;2023-04-03T02:08:12;1.08;;;0.90;;
50851;SDS011;43953;45.508;-122.806;2023-04-03T02:08:44;1.98;;;1.00;;
50851;SDS011;43953;45.508;-122.806;2023-04-03T02:09:16;1.50;;;1.10;;
50851;SDS011;43953;45.508;-122.806;2023-04-03T02:09:47;3.35;;;1.40;;
50851;SDS011;43953;45.508;-122.806;2023-04-03T02:10:19;3.35;;;1.80;;
50851;SDS011;43953;45.508;-122.806;2023-04-03T02:10:51;4.05;;;2.05;;
50851;SDS011;43953;45.508;-122.806;2023-04-03T02:11:23;3.90;;;2.20;;
50851;SDS011;43953;45.508;-122.806;2023-04-03T02:11:55;4.78;;;2.47;;
50851;SDS011;43953;45.508;-122.806;2023-04-03T02:12:26;6.53;;;3.08;;
50851;SDS011;43953;45.508;-122.806;2023-04-03T02:12:58;8.13;;;3.60;;
50851;SDS011;43953;45.508;-122.806;2023-04-03T02:13:30;6.70;;;4.20;;
50851;SDS011;43953;45.508;-122.806;2023-04-03T02:14:01;7.07;;;3.67;;
50851;SDS011;43953;45.508;-122.806;2023-04-03T02:14:33;6.82;;;3.65;;
50851;SDS011;43953;45.508;-122.806;2023-04-03T02:15:05;5.57;;;3.72;;
50851;SDS011;43953;45.508;-122.806;2023-04-03T02:15:38;8.07;;;3.28;;
50851;SDS011;43953;45.508;-122.806;2023-04-03T02:16:10;6.22;;;3.28;;
50851;SDS011;43953;45.508;-122.806;2023-04-03T02:16:43;6.00;;;3.28;;
50851;SDS011;43953;45.508;-122.806;2023-04-03T02:17:15;5.43;;;2.72;;
50851;SDS011;43953;45.508;-122.806;2023-04-03T02:17:46;6.07;;;3.58;;
50851;SDS011;43953;45.508;-122.806;2023-04-03T02:18:18;6.18;;;3.10;;
50851;SDS011;43953;45.508;-122.806;2023-04-03T02:18:50;8.35;;;4.20;;
50851;SDS011;43953;45.508;-122.806;2023-04-03T02:19:22;7.93;;;3.95;;
50851;SDS011;43953;45.508;-122.806;2023-04-03T02:19:54;9.60;;;5.25;;
50851;SDS011;43953;45.508;-122.806;2023-04-03T02:20:26;11.18;;;5.40;;
50851;SDS011;43953;45.508;-122.806;2023-04-03T02:20:57;9.80;;;4.90;;
50851;SDS011;43953;45.508;-122.806;2023-04-03T02:21:29;8.02;;;4.63;;
50851;SDS011;43953;45.508;-122.806;2023-04-03T02:22:04;6.63;;;3.22;;
50851;SDS011;43953;45.508;-122.806;2023-04-03T02:22:36;6.82;;;3.40;;
50851;SDS011;43953;45.508;-122.806;2023-04-03T02:23:08;4.65;;;2.55;;
50851;SDS011;43953;45.508;-122.806;2023-04-03T02:23:40;4.22;;;2.70;;
50851;SDS011;43953;45.508;-122.806;2023-04-03T02:24:12;4.80;;;3.10;;
50851;SDS011;43953;45.508;-122.806;2023-04-03T02:24:43;3.90;;;2.15;;
50851;SDS011;43953;45.508;-122.806;2023-04-03T02:25:15;4.57;;;2.30;;
50851;SDS011;43953;45.508;-122.806;2023-04-03T02:25:48;4.03;;;2.05;;
50851;SDS011;43953;45.508;-122.806;2023-04-03T02:26:20;2.88;;;2.13;;
50851;SDS011;43953;45.508;-122.806;2023-04-03T02:26:52;2.22;;;1.65;;
50851;SDS011;43953;45.508;-122.806;2023-04-03T02:27:23;2.50;;;1.80;;
50851;SDS011;43953;45.508;-122.806;2023-04-03T02:27:55;2.67;;;1.77;;
50851;SDS011;43953;45.508;-122.806;2023-04-03T02:28:27;3.40;;;1.80;;
50851;SDS011;43953;45.508;-122.806;2023-04-03T02:28:59;2.95;;;1.88;;
50851;SDS011;43953;45.508;-122.806;2023-04-03T02:29:30;2.33;;;1.70;;
50851;SDS011;43953;45.508;-122.806;2023-04-03T02:30:03;2.58;;;1.98;;
50851;SDS011;43953;45.508;-122.806;2023-04-03T02:30:35;2.55;;;1.48;;
50851;SDS011;43953;45.508;-122.806;2023-04-03T02:31:07;1.85;;;1.20;;
50851;SDS011;43953;45.508;-122.806;2023-04-03T02:31:39;1.50;;;1.15;;
50851;SDS011;43953;45.508;-122.806;2023-04-03T02:32:10;2.30;;;1.13;;
50851;SDS011;43953;45.508;-122.806;2023-04-03T02:32:42;2.42;;;1.00;;
50851;SDS011;43953;45.508;-122.806;2023-04-03T02:33:15;2.90;;;1.20;;
50851;SDS011;43953;45.508;-122.806;2023-04-03T02:33:46;2.00;;;1.20;;
50851;SDS011;43953;45.508;-122.806;2023-04-03T02:34:18;1.20;;;0.90;;
50851;SDS011;43953;45.508;-122.806;2023-04-03T02:34:50;1.23;;;0.82;;
50851;SDS011;43953;45.508;-122.806;2023-04-03T02:35:21;1.63;;;0.82;;
50851;SDS011;43953;45.508;-122.806;2023-04-03T02:35:54;0.98;;;0.70;;
50851;SDS011;43953;45.508;-122.806;2023-04-03T02:36:26;1.75;;;0.80;;
50851;SDS011;43953;45.508;-122.806;2023-04-03T02:36:58;1.25;;;0.82;;
50851;SDS011;43953;45.508;-122.806;2023-04-03T02:37:29;1.52;;;0.80;;
50851;SDS011;43953;45.508;-122.806;2023-04-03T02:38:01;0.90;;;0.70;;
50851;SDS011;43953;45.508;-122.806;2023-04-03T02:38:33;1.40;;;0.80;;
50851;SDS011;43953;45.508;-122.806;2023-04-03T02:39:05;1.45;;;0.73;;
50851;SDS011;43953;45.508;-122.806;2023-04-03T02:39:37;0.77;;;0.73;;
50851;SDS011;43953;45.508;-122.806;2023-04-03T02:40:09;1.10;;;1.00;;
50851;SDS011;43953;45.508;-122.806;2023-04-03T02:40:42;1.48;;;1.00;;
50851;SDS011;43953;45.508;-122.806;2023-04-03T02:41:13;1.58;;;0.90;;
50851;SDS011;43953;45.508;-122.806;2023-04-03T02:41:45;0.77;;;0.77;;
50851;SDS011;43953;45.508;-122.806;2023-04-03T02:42:17;3.50;;;0.85;;
50851;SDS011;43953;45.508;-122.806;2023-04-03T02:42:49;1.02;;;0.82;;
50851;SDS011;43953;45.508;-122.806;2023-04-03T02:43:21;1.13;;;0.80;;
50851;SDS011;43953;45.508;-122.806;2023-04-03T02:43:52;1.13;;;0.70;;
50851;SDS011;43953;45.508;-122.806;2023-04-03T02:44:24;1.17;;;0.80;;
50851;SDS011;43953;45.508;-122.806;2023-04-03T02:44:56;1.17;;;0.68;;
50851;SDS011;43953;45.508;-122.806;2023-04-03T02:45:27;1.38;;;0.73;;
50851;SDS011;43953;45.508;-122.806;2023-04-03T02:45:59;0.98;;;0.88;;
50851;SDS011;43953;45.508;-122.806;2023-04-03T02:46:31;1.23;;;0.75;;
50851;SDS011;43953;45.508;-122.806;2023-04-03T02:47:04;1.58;;;0.70;;
50851;SDS011;43953;45.508;-122.806;2023-04-03T02:47:36;1.77;;;0.80;;
50851;SDS011;43953;45.508;-122.806;2023-04-03T02:48:07;1.65;;;0.60;;
50851;SDS011;43953;45.508;-122.806;2023-04-03T02:48:39;0.65;;;0.50;;
50851;SDS011;43953;45.508;-122.806;2023-04-03T02:49:11;2.40;;;0.65;;
50851;SDS011;43953;45.508;-122.806;2023-04-03T02:49:43;1.27;;;0.82;;
50851;SDS011;43953;45.508;-122.806;2023-04-03T02:50:15;0.82;;;0.70;;
50851;SDS011;43953;45.508;-122.806;2023-04-03T02:50:47;1.65;;;0.98;;
50851;SDS011;43953;45.508;-122.806;2023-04-03T02:51:19;1.15;;;0.90;;
50851;SDS011;43953;45.508;-122.806;2023-04-03T02:51:51;1.38;;;0.90;;
50851;SDS011;43953;45.508;-122.806;2023-04-03T02:52:23;1.48;;;1.10;;
50851;SDS011;43953;45.508;-122.806;2023-04-03T02:52:54;1.90;;;0.98;;
50851;SDS011;43953;45.508;-122.806;2023-04-03T02:53:26;1.48;;;0.90;;
50851;SDS011;43953;45.508;-122.806;2023-04-03T02:53:58;1.80;;;1.05;;
50851;SDS011;43953;45.508;-122.806;2023-04-03T02:54:29;2.63;;;1.00;;
50851;SDS011;43953;45.508;-122.806;2023-04-03T02:55:01;1.05;;;0.90;;
50851;SDS011;43953;45.508;-122.806;2023-04-03T02:55:33;2.83;;;1.13;;
50851;SDS011;43953;45.508;-122.806;2023-04-03T02:56:05;1.10;;;0.80;;
50851;SDS011;43953;45.508;-122.806;2023-04-03T02:56:36;1.63;;;1.10;;
50851;SDS011;43953;45.508;-122.806;2023-04-03T02:57:08;1.75;;;1.17;;
50851;SDS011;43953;45.508;-122.806;2023-04-03T02:57:40;1.23;;;0.90;;
50851;SDS011;43953;45.508;-122.806;2023-04-03T02:58:12;2.17;;;1.00;;
50851;SDS011;43953;45.508;-122.806;2023-04-03T02:58:44;1.58;;;1.20;;
50851;SDS011;43953;45.508;-122.806;2023-04-03T02:59:15;1.38;;;0.80;;
50851;SDS011;43953;45.508;-122.806;2023-04-03T02:59:47;1.40;;;1.08;;
50851;SDS011;43953;45.508;-122.806;2023-04-03T03:00:19;1.70;;;1.55;;
50851;SDS011;43953;45.508;-122.806;2023-04-03T03:00:51;1.52;;;0.82;;
50851;SDS011;43953;45.508;-122.806;2023-04-03T03:01:23;1.20;;;1.10;;
50851;SDS011;43953;45.508;-122.806;2023-04-03T03:01:54;1.48;;;0.93;;
50851;SDS011;43953;45.508;-122.806;2023-04-03T03:02:27;1.50;;;1.10;;
50851;SDS011;43953;45.508;-122.806;2023-04-03T03:02:58;1.67;;;0.80;;
50851;SDS011;43953;45.508;-122.806;2023-04-03T03:03:30;1.73;;;1.38;;
50851;SDS011;43953;45.508;-122.806;2023-04-03T03:04:02;1.20;;;0.90;;
50851;SDS011;43953;45.508;-122.806;2023-04-03T03:04:34;1.48;;;0.90;;
50851;SDS011;43953;45.508;-122.806;2023-04-03T03:05:06;1.60;;;1.00;;
50851;SDS011;43953;45.508;-122.806;2023-04-03T03:05:38;1.45;;;0.98;;
50851;SDS011;43953;45.508;-122.806;2023-04-03T03:06:11;2.15;;;1.20;;
50851;SDS011;43953;45.508;-122.806;2023-04-03T03:06:45;1.45;;;0.95;;
50851;SDS011;43953;45.508;-122.806;2023-04-03T03:07:17;1.70;;;0.90;;
50851;SDS011;43953;45.508;-122.806;2023-04-03T03:07:49;0.80;;;0.80;;
50851;SDS011;43953;45.508;-122.806;2023-04-03T03:08:20;1.50;;;1.00;;
50851;SDS011;43953;45.508;-122.806;2023-04-03T03:08:52;3.40;;;1.50;;
50851;SDS011;43953;45.508;-122.806;2023-04-03T03:09:24;1.20;;;1.00;;
50851;SDS011;43953;45.508;-122.806;2023-04-03T03:09:57;1.23;;;0.80;;
50851;SDS011;43953;45.508;-122.806;2023-04-03T03:10:29;0.88;;;0.80;;
50851;SDS011;43953;45.508;-122.806;2023-04-03T03:11:01;2.50;;;1.00;;
50851;SDS011;43953;45.508;-122.806;2023-04-03T03:11:33;1.10;;;0.80;;
50851;SDS011;43953;45.508;-122.806;2023-04-03T03:12:05;0.95;;;0.95;;
50851;SDS011;43953;45.508;-122.806;2023-04-03T03:12:36;0.93;;;0.82;;
50851;SDS011;43953;45.508;-122.806;2023-04-03T03:13:08;2.03;;;0.95;;
50851;SDS011;43953;45.508;-122.806;2023-04-03T03:13:40;1.10;;;0.70;;
50851;SDS011;43953;45.508;-122.806;2023-04-03T03:14:12;1.48;;;0.88;;
50851;SDS011;43953;45.508;-122.806;2023-04-03T03:14:44;1.42;;;0.63;;